sensor_id;sensor_type;location;lat;lon;timestamp;temperature;humidity
44047;DHT22;29713;-33.888;151.150;2023-03-17T00:01:53;30.20;97.00
44047;DHT22;29713;-33.888;151.150;2023-03-17T00:04:24;30.40;96.70
44047;DHT22;29713;-33.888;151.150;2023-03-17T00:06:53;30.40;96.10
44047;DHT22;29713;-33.888;151.150;2023-03-17T00:09:21;30.50;95.80
44047;DHT22;29713;-33.888;151.150;2023-03-17T00:11:49;30.60;95.00
44047;DHT22;29713;-33.888;151.150;2023-03-17T00:14:17;30.70;95.20
44047;DHT22;29713;-33.888;151.150;2023-03-17T00:16:48;30.70;95.00
44047;DHT22;29713;-33.888;151.150;2023-03-17T00:19:17;30.80;95.10
44047;DHT22;29713;-33.888;151.150;2023-03-17T00:21:45;30.90;93.90
44047;DHT22;29713;-33.888;151.150;2023-03-17T00:24:13;31.00;94.40
44047;DHT22;29713;-33.888;151.150;2023-03-17T00:26:41;31.10;92.80
44047;DHT22;29713;-33.888;151.150;2023-03-17T00:29:09;31.10;93.20
44047;DHT22;29713;-33.888;151.150;2023-03-17T00:31:37;31.20;93.10
44047;DHT22;29713;-33.888;151.150;2023-03-17T00:34:05;31.40;93.50
44047;DHT22;29713;-33.888;151.150;2023-03-17T00:36:34;31.70;93.40
44047;DHT22;29713;-33.888;151.150;2023-03-17T00:39:01;31.80;93.60
44047;DHT22;29713;-33.888;151.150;2023-03-17T00:41:29;31.90;92.80
44047;DHT22;29713;-33.888;151.150;2023-03-17T00:43:56;31.90;92.30
44047;DHT22;29713;-33.888;151.150;2023-03-17T00:46:28;32.10;92.70
44047;DHT22;29713;-33.888;151.150;2023-03-17T00:49:16;32.20;91.70
44047;DHT22;29713;-33.888;151.150;2023-03-17T00:51:45;32.30;91.60
44047;DHT22;29713;-33.888;151.150;2023-03-17T00:54:13;32.30;90.90
44047;DHT22;29713;-33.888;151.150;2023-03-17T00:56:41;32.20;90.40
44047;DHT22;29713;-33.888;151.150;2023-03-17T00:59:25;32.20;90.10
44047;DHT22;29713;-33.888;151.150;2023-03-17T01:01:53;32.00;90.20
44047;DHT22;29713;-33.888;151.150;2023-03-17T01:04:21;32.10;90.10
44047;DHT22;29713;-33.888;151.150;2023-03-17T01:06:50;32.10;90.10
44047;DHT22;29713;-33.888;151.150;2023-03-17T01:09:19;32.30;90.10
44047;DHT22;29713;-33.888;151.150;2023-03-17T01:11:48;32.50;89.90
44047;DHT22;29713;-33.888;151.150;2023-03-17T01:14:16;32.70;89.20
44047;DHT22;29713;-33.888;151.150;2023-03-17T01:16:43;32.80;90.90
44047;DHT22;29713;-33.888;151.150;2023-03-17T01:19:12;33.00;91.40
44047;DHT22;29713;-33.888;151.150;2023-03-17T01:21:40;33.20;92.00
44047;DHT22;29713;-33.888;151.150;2023-03-17T01:24:08;33.40;91.70
44047;DHT22;29713;-33.888;151.150;2023-03-17T01:26:35;33.80;91.80
44047;DHT22;29713;-33.888;151.150;2023-03-17T01:29:04;34.00;91.10
44047;DHT22;29713;-33.888;151.150;2023-03-17T01:31:33;34.40;91.30
44047;DHT22;29713;-33.888;151.150;2023-03-17T01:34:01;34.60;90.70
44047;DHT22;29713;-33.888;151.150;2023-03-17T01:36:29;34.60;90.30
44047;DHT22;29713;-33.888;151.150;2023-03-17T01:38:57;34.60;90.20
44047;DHT22;29713;-33.888;151.150;2023-03-17T01:41:25;34.60;89.40
44047;DHT22;29713;-33.888;151.150;2023-03-17T01:43:52;34.60;88.50
44047;DHT22;29713;-33.888;151.150;2023-03-17T01:46:31;34.70;89.20
44047;DHT22;29713;-33.888;151.150;2023-03-17T01:49:17;34.80;86.80
44047;DHT22;29713;-33.888;151.150;2023-03-17T01:54:45;35.00;86.50
44047;DHT22;29713;-33.888;151.150;2023-03-17T01:57:18;34.90;88.00
44047;DHT22;29713;-33.888;151.150;2023-03-17T01:59:51;34.90;89.30
44047;DHT22;29713;-33.888;151.150;2023-03-17T02:02:23;34.90;91.10
44047;DHT22;29713;-33.888;151.150;2023-03-17T02:04:52;35.00;92.70
44047;DHT22;29713;-33.888;151.150;2023-03-17T02:07:20;34.80;94.70
44047;DHT22;29713;-33.888;151.150;2023-03-17T02:09:49;34.70;95.60
44047;DHT22;29713;-33.888;151.150;2023-03-17T02:12:18;34.70;95.70
44047;DHT22;29713;-33.888;151.150;2023-03-17T02:14:47;34.50;94.70
44047;DHT22;29713;-33.888;151.150;2023-03-17T02:17:15;34.50;93.80
44047;DHT22;29713;-33.888;151.150;2023-03-17T02:19:42;34.70;93.00
44047;DHT22;29713;-33.888;151.150;2023-03-17T02:22:10;34.90;92.20
44047;DHT22;29713;-33.888;151.150;2023-03-17T02:24:42;34.70;91.60
44047;DHT22;29713;-33.888;151.150;2023-03-17T02:27:16;34.80;92.30
44047;DHT22;29713;-33.888;151.150;2023-03-17T02:29:45;35.00;91.60
44047;DHT22;29713;-33.888;151.150;2023-03-17T02:32:17;35.30;92.00
44047;DHT22;29713;-33.888;151.150;2023-03-17T02:34:46;35.50;92.00
44047;DHT22;29713;-33.888;151.150;2023-03-17T02:37:15;35.50;91.20
44047;DHT22;29713;-33.888;151.150;2023-03-17T02:39:43;35.30;91.80
44047;DHT22;29713;-33.888;151.150;2023-03-17T02:42:11;35.30;93.10
44047;DHT22;29713;-33.888;151.150;2023-03-17T02:44:38;35.40;93.20
44047;DHT22;29713;-33.888;151.150;2023-03-17T02:47:06;35.30;93.60
44047;DHT22;29713;-33.888;151.150;2023-03-17T02:49:34;35.60;93.70
44047;DHT22;29713;-33.888;151.150;2023-03-17T02:52:02;36.00;94.40
44047;DHT22;29713;-33.888;151.150;2023-03-17T02:54:30;35.90;94.50
44047;DHT22;29713;-33.888;151.150;2023-03-17T02:56:58;36.00;95.40
44047;DHT22;29713;-33.888;151.150;2023-03-17T02:59:25;36.30;96.00
44047;DHT22;29713;-33.888;151.150;2023-03-17T03:01:53;36.50;96.00
44047;DHT22;29713;-33.888;151.150;2023-03-17T03:04:22;36.30;95.50
44047;DHT22;29713;-33.888;151.150;2023-03-17T03:06:50;36.00;95.80
44047;DHT22;29713;-33.888;151.150;2023-03-17T03:09:17;36.20;95.90
44047;DHT22;29713;-33.888;151.150;2023-03-17T03:11:45;36.30;96.70
44047;DHT22;29713;-33.888;151.150;2023-03-17T03:14:13;36.20;96.80
44047;DHT22;29713;-33.888;151.150;2023-03-17T03:16:40;36.50;97.50
44047;DHT22;29713;-33.888;151.150;2023-03-17T03:19:09;36.20;97.20
44047;DHT22;29713;-33.888;151.150;2023-03-17T03:21:37;36.60;97.80
44047;DHT22;29713;-33.888;151.150;2023-03-17T03:24:05;36.10;96.90
44047;DHT22;29713;-33.888;151.150;2023-03-17T03:26:33;36.00;96.80
44047;DHT22;29713;-33.888;151.150;2023-03-17T03:29:00;36.00;96.50
44047;DHT22;29713;-33.888;151.150;2023-03-17T03:31:27;35.70;98.00
44047;DHT22;29713;-33.888;151.150;2023-03-17T03:33:55;36.00;98.50
44047;DHT22;29713;-33.888;151.150;2023-03-17T03:36:22;36.00;98.10
44047;DHT22;29713;-33.888;151.150;2023-03-17T03:38:50;35.60;98.20
44047;DHT22;29713;-33.888;151.150;2023-03-17T03:41:18;35.50;98.50
44047;DHT22;29713;-33.888;151.150;2023-03-17T03:43:45;35.20;98.90
44047;DHT22;29713;-33.888;151.150;2023-03-17T03:46:12;35.00;99.90
44047;DHT22;29713;-33.888;151.150;2023-03-17T03:48:41;34.50;99.80
44047;DHT22;29713;-33.888;151.150;2023-03-17T03:51:08;34.40;99.90
44047;DHT22;29713;-33.888;151.150;2023-03-17T03:53:36;33.80;99.90
44047;DHT22;29713;-33.888;151.150;2023-03-17T03:56:03;33.80;99.90
44047;DHT22;29713;-33.888;151.150;2023-03-17T03:58:30;34.00;99.90
44047;DHT22;29713;-33.888;151.150;2023-03-17T04:00:58;33.80;99.90
44047;DHT22;29713;-33.888;151.150;2023-03-17T04:03:25;33.80;99.90
44047;DHT22;29713;-33.888;151.150;2023-03-17T04:05:53;33.70;99.90
44047;DHT22;29713;-33.888;151.150;2023-03-17T04:08:20;33.40;99.90
44047;DHT22;29713;-33.888;151.150;2023-03-17T04:10:48;33.40;99.90
44047;DHT22;29713;-33.888;151.150;2023-03-17T04:13:15;33.30;99.90
44047;DHT22;29713;-33.888;151.150;2023-03-17T04:15:42;33.60;99.90
44047;DHT22;29713;-33.888;151.150;2023-03-17T04:18:10;33.10;99.90
44047;DHT22;29713;-33.888;151.150;2023-03-17T04:20:37;33.00;99.90
44047;DHT22;29713;-33.888;151.150;2023-03-17T04:23:04;32.70;99.90
44047;DHT22;29713;-33.888;151.150;2023-03-17T04:25:32;32.30;99.90
44047;DHT22;29713;-33.888;151.150;2023-03-17T04:27:59;32.30;99.90
44047;DHT22;29713;-33.888;151.150;2023-03-17T04:30:27;32.50;99.90
44047;DHT22;29713;-33.888;151.150;2023-03-17T04:32:54;32.80;99.90
44047;DHT22;29713;-33.888;151.150;2023-03-17T04:35:21;32.90;99.90
44047;DHT22;29713;-33.888;151.150;2023-03-17T04:37:49;32.70;99.90
44047;DHT22;29713;-33.888;151.150;2023-03-17T04:40:18;32.00;99.90
44047;DHT22;29713;-33.888;151.150;2023-03-17T04:42:45;31.40;99.90
44047;DHT22;29713;-33.888;151.150;2023-03-17T04:45:13;31.50;99.90
44047;DHT22;29713;-33.888;151.150;2023-03-17T04:47:42;31.40;99.90
44047;DHT22;29713;-33.888;151.150;2023-03-17T04:50:12;31.10;99.90
44047;DHT22;29713;-33.888;151.150;2023-03-17T04:52:40;30.80;99.90
44047;DHT22;29713;-33.888;151.150;2023-03-17T04:55:08;30.50;99.90
44047;DHT22;29713;-33.888;151.150;2023-03-17T04:57:36;30.10;99.90
44047;DHT22;29713;-33.888;151.150;2023-03-17T05:00:05;29.70;99.90
44047;DHT22;29713;-33.888;151.150;2023-03-17T05:02:33;29.80;99.90
44047;DHT22;29713;-33.888;151.150;2023-03-17T05:05:00;30.20;99.90
44047;DHT22;29713;-33.888;151.150;2023-03-17T05:07:28;30.20;99.90
44047;DHT22;29713;-33.888;151.150;2023-03-17T05:09:56;30.10;99.90
44047;DHT22;29713;-33.888;151.150;2023-03-17T05:12:23;29.90;99.90
44047;DHT22;29713;-33.888;151.150;2023-03-17T05:14:50;29.50;99.90
44047;DHT22;29713;-33.888;151.150;2023-03-17T05:17:18;29.20;99.90
44047;DHT22;29713;-33.888;151.150;2023-03-17T05:19:45;29.50;99.90
44047;DHT22;29713;-33.888;151.150;2023-03-17T05:22:12;29.70;99.90
44047;DHT22;29713;-33.888;151.150;2023-03-17T05:24:40;29.60;99.90
44047;DHT22;29713;-33.888;151.150;2023-03-17T05:27:07;29.20;99.90
44047;DHT22;29713;-33.888;151.150;2023-03-17T05:29:35;28.90;99.90
44047;DHT22;29713;-33.888;151.150;2023-03-17T05:32:02;28.70;99.90
44047;DHT22;29713;-33.888;151.150;2023-03-17T05:34:29;28.40;99.90
44047;DHT22;29713;-33.888;151.150;2023-03-17T05:36:57;28.40;99.90
44047;DHT22;29713;-33.888;151.150;2023-03-17T05:39:24;28.30;99.90
44047;DHT22;29713;-33.888;151.150;2023-03-17T05:41:52;28.40;99.90
44047;DHT22;29713;-33.888;151.150;2023-03-17T05:44:19;28.30;99.90
44047;DHT22;29713;-33.888;151.150;2023-03-17T05:46:47;28.20;99.90
44047;DHT22;29713;-33.888;151.150;2023-03-17T05:49:14;28.00;99.90
44047;DHT22;29713;-33.888;151.150;2023-03-17T05:51:42;27.90;99.90
44047;DHT22;29713;-33.888;151.150;2023-03-17T05:54:09;27.90;99.90
44047;DHT22;29713;-33.888;151.150;2023-03-17T05:56:37;27.90;99.90
44047;DHT22;29713;-33.888;151.150;2023-03-17T05:59:04;28.40;99.90
44047;DHT22;29713;-33.888;151.150;2023-03-17T06:01:31;28.80;99.90
44047;DHT22;29713;-33.888;151.150;2023-03-17T06:03:59;29.20;99.90
44047;DHT22;29713;-33.888;151.150;2023-03-17T06:06:27;29.40;99.90
44047;DHT22;29713;-33.888;151.150;2023-03-17T06:08:55;29.40;99.90
44047;DHT22;29713;-33.888;151.150;2023-03-17T06:11:22;29.60;99.90
44047;DHT22;29713;-33.888;151.150;2023-03-17T06:13:49;30.10;99.90
44047;DHT22;29713;-33.888;151.150;2023-03-17T06:16:17;30.30;99.90
44047;DHT22;29713;-33.888;151.150;2023-03-17T06:18:45;30.50;99.90
44047;DHT22;29713;-33.888;151.150;2023-03-17T06:21:12;30.40;99.90
44047;DHT22;29713;-33.888;151.150;2023-03-17T06:23:40;30.50;99.90
44047;DHT22;29713;-33.888;151.150;2023-03-17T06:26:07;30.40;99.90
44047;DHT22;29713;-33.888;151.150;2023-03-17T06:28:34;30.50;99.90
44047;DHT22;29713;-33.888;151.150;2023-03-17T06:31:02;30.50;99.90
44047;DHT22;29713;-33.888;151.150;2023-03-17T06:33:29;30.40;99.90
44047;DHT22;29713;-33.888;151.150;2023-03-17T06:35:58;30.00;99.90
44047;DHT22;29713;-33.888;151.150;2023-03-17T06:38:26;29.60;99.90
44047;DHT22;29713;-33.888;151.150;2023-03-17T06:40:53;29.30;99.90
44047;DHT22;29713;-33.888;151.150;2023-03-17T06:43:21;29.00;99.90
44047;DHT22;29713;-33.888;151.150;2023-03-17T06:45:50;28.70;99.90
44047;DHT22;29713;-33.888;151.150;2023-03-17T06:48:18;28.40;99.90
44047;DHT22;29713;-33.888;151.150;2023-03-17T06:50:46;28.40;99.90
44047;DHT22;29713;-33.888;151.150;2023-03-17T06:53:14;28.30;99.90
44047;DHT22;29713;-33.888;151.150;2023-03-17T06:55:42;28.50;99.90
44047;DHT22;29713;-33.888;151.150;2023-03-17T06:58:10;28.70;99.90
44047;DHT22;29713;-33.888;151.150;2023-03-17T07:00:38;28.60;99.90
44047;DHT22;29713;-33.888;151.150;2023-03-17T07:03:06;28.40;99.90
44047;DHT22;29713;-33.888;151.150;2023-03-17T07:05:35;28.10;99.90
44047;DHT22;29713;-33.888;151.150;2023-03-17T07:08:05;27.90;99.90
44047;DHT22;29713;-33.888;151.150;2023-03-17T07:10:32;27.60;99.90
44047;DHT22;29713;-33.888;151.150;2023-03-17T07:13:00;27.50;99.90
44047;DHT22;29713;-33.888;151.150;2023-03-17T07:15:28;27.50;99.90
44047;DHT22;29713;-33.888;151.150;2023-03-17T07:18:00;27.40;99.90
44047;DHT22;29713;-33.888;151.150;2023-03-17T07:20:28;27.30;99.90
44047;DHT22;29713;-33.888;151.150;2023-03-17T07:22:55;27.20;99.90
44047;DHT22;29713;-33.888;151.150;2023-03-17T07:25:23;27.20;99.90
44047;DHT22;29713;-33.888;151.150;2023-03-17T07:27:50;27.10;99.90
44047;DHT22;29713;-33.888;151.150;2023-03-17T07:30:18;27.10;99.90
44047;DHT22;29713;-33.888;151.150;2023-03-17T07:32:46;27.00;99.90
44047;DHT22;29713;-33.888;151.150;2023-03-17T07:35:14;26.80;99.90
44047;DHT22;29713;-33.888;151.150;2023-03-17T07:37:43;26.80;99.90
44047;DHT22;29713;-33.888;151.150;2023-03-17T07:40:10;26.70;99.90
44047;DHT22;29713;-33.888;151.150;2023-03-17T07:42:38;26.60;99.90
44047;DHT22;29713;-33.888;151.150;2023-03-17T07:45:06;26.50;99.90
44047;DHT22;29713;-33.888;151.150;2023-03-17T07:47:33;26.50;99.90
44047;DHT22;29713;-33.888;151.150;2023-03-17T07:50:00;26.50;99.90
44047;DHT22;29713;-33.888;151.150;2023-03-17T07:52:28;26.50;99.90
44047;DHT22;29713;-33.888;151.150;2023-03-17T07:54:55;26.50;99.90
44047;DHT22;29713;-33.888;151.150;2023-03-17T07:57:24;26.40;99.90
44047;DHT22;29713;-33.888;151.150;2023-03-17T07:59:51;26.50;99.90
44047;DHT22;29713;-33.888;151.150;2023-03-17T08:02:19;26.50;99.90
44047;DHT22;29713;-33.888;151.150;2023-03-17T08:04:46;26.40;99.90
44047;DHT22;29713;-33.888;151.150;2023-03-17T08:07:14;26.40;99.90
44047;DHT22;29713;-33.888;151.150;2023-03-17T08:09:41;26.50;99.90
44047;DHT22;29713;-33.888;151.150;2023-03-17T08:12:09;26.40;99.90
44047;DHT22;29713;-33.888;151.150;2023-03-17T08:14:37;26.40;99.90
44047;DHT22;29713;-33.888;151.150;2023-03-17T08:17:04;26.30;99.90
44047;DHT22;29713;-33.888;151.150;2023-03-17T08:19:32;26.20;99.90
44047;DHT22;29713;-33.888;151.150;2023-03-17T08:21:59;26.20;99.90
44047;DHT22;29713;-33.888;151.150;2023-03-17T08:24:26;26.20;99.90
44047;DHT22;29713;-33.888;151.150;2023-03-17T08:26:54;26.10;99.90
44047;DHT22;29713;-33.888;151.150;2023-03-17T08:29:22;26.10;99.90
44047;DHT22;29713;-33.888;151.150;2023-03-17T08:31:50;26.00;99.90
44047;DHT22;29713;-33.888;151.150;2023-03-17T08:34:17;26.00;99.90
44047;DHT22;29713;-33.888;151.150;2023-03-17T08:36:44;26.00;99.90
44047;DHT22;29713;-33.888;151.150;2023-03-17T08:39:12;26.00;99.90
44047;DHT22;29713;-33.888;151.150;2023-03-17T08:41:39;26.00;99.90
44047;DHT22;29713;-33.888;151.150;2023-03-17T08:44:07;26.00;99.90
44047;DHT22;29713;-33.888;151.150;2023-03-17T08:46:35;26.00;99.90
44047;DHT22;29713;-33.888;151.150;2023-03-17T08:49:02;25.90;99.90
44047;DHT22;29713;-33.888;151.150;2023-03-17T08:51:32;25.90;99.90
44047;DHT22;29713;-33.888;151.150;2023-03-17T08:54:00;25.90;99.90
44047;DHT22;29713;-33.888;151.150;2023-03-17T08:56:28;25.90;99.90
44047;DHT22;29713;-33.888;151.150;2023-03-17T08:58:57;25.80;99.90
44047;DHT22;29713;-33.888;151.150;2023-03-17T09:01:25;25.80;99.90
44047;DHT22;29713;-33.888;151.150;2023-03-17T09:03:53;25.80;99.90
44047;DHT22;29713;-33.888;151.150;2023-03-17T09:06:22;25.70;99.90
44047;DHT22;29713;-33.888;151.150;2023-03-17T09:08:50;25.70;99.90
44047;DHT22;29713;-33.888;151.150;2023-03-17T09:11:24;25.70;99.90
44047;DHT22;29713;-33.888;151.150;2023-03-17T09:13:52;25.70;99.90
44047;DHT22;29713;-33.888;151.150;2023-03-17T09:16:20;25.70;99.90
44047;DHT22;29713;-33.888;151.150;2023-03-17T09:18:49;25.70;99.90
44047;DHT22;29713;-33.888;151.150;2023-03-17T09:21:17;25.60;99.90
44047;DHT22;29713;-33.888;151.150;2023-03-17T09:23:44;25.60;99.90
44047;DHT22;29713;-33.888;151.150;2023-03-17T09:26:12;25.60;99.90
44047;DHT22;29713;-33.888;151.150;2023-03-17T09:28:40;25.60;99.90
44047;DHT22;29713;-33.888;151.150;2023-03-17T09:31:09;25.60;99.90
44047;DHT22;29713;-33.888;151.150;2023-03-17T09:33:41;25.60;99.90
44047;DHT22;29713;-33.888;151.150;2023-03-17T09:36:11;25.70;99.90
44047;DHT22;29713;-33.888;151.150;2023-03-17T09:38:39;25.60;99.90
44047;DHT22;29713;-33.888;151.150;2023-03-17T09:49:12;25.70;99.90
44047;DHT22;29713;-33.888;151.150;2023-03-17T09:51:42;25.60;99.90
44047;DHT22;29713;-33.888;151.150;2023-03-17T09:54:27;25.60;99.90
44047;DHT22;29713;-33.888;151.150;2023-03-17T10:00:00;25.50;99.90
44047;DHT22;29713;-33.888;151.150;2023-03-17T10:02:33;25.40;99.90
44047;DHT22;29713;-33.888;151.150;2023-03-17T10:05:29;25.40;99.90
44047;DHT22;29713;-33.888;151.150;2023-03-17T10:25:18;25.30;99.90
44047;DHT22;29713;-33.888;151.150;2023-03-17T10:28:36;25.30;99.90
44047;DHT22;29713;-33.888;151.150;2023-03-17T10:30:39;25.30;99.90
44047;DHT22;29713;-33.888;151.150;2023-03-17T10:33:06;25.40;99.90
44047;DHT22;29713;-33.888;151.150;2023-03-17T10:35:34;25.40;99.90
44047;DHT22;29713;-33.888;151.150;2023-03-17T10:38:20;25.30;99.90
44047;DHT22;29713;-33.888;151.150;2023-03-17T10:40:59;25.30;99.90
44047;DHT22;29713;-33.888;151.150;2023-03-17T10:43:34;25.30;99.90
44047;DHT22;29713;-33.888;151.150;2023-03-17T10:46:24;25.20;99.90
44047;DHT22;29713;-33.888;151.150;2023-03-17T10:48:53;25.10;99.90
44047;DHT22;29713;-33.888;151.150;2023-03-17T10:51:39;25.10;99.90
44047;DHT22;29713;-33.888;151.150;2023-03-17T10:54:22;25.10;99.90
44047;DHT22;29713;-33.888;151.150;2023-03-17T10:57:00;25.10;99.90
44047;DHT22;29713;-33.888;151.150;2023-03-17T10:59:30;25.00;99.90
44047;DHT22;29713;-33.888;151.150;2023-03-17T11:01:59;24.90;99.90
44047;DHT22;29713;-33.888;151.150;2023-03-17T11:04:37;24.90;99.90
44047;DHT22;29713;-33.888;151.150;2023-03-17T11:07:08;24.90;99.90
44047;DHT22;29713;-33.888;151.150;2023-03-17T11:09:38;24.90;99.90
44047;DHT22;29713;-33.888;151.150;2023-03-17T11:12:29;24.90;99.90
44047;DHT22;29713;-33.888;151.150;2023-03-17T11:14:59;24.90;99.90
44047;DHT22;29713;-33.888;151.150;2023-03-17T11:17:54;24.80;99.90
44047;DHT22;29713;-33.888;151.150;2023-03-17T11:20:42;24.80;99.90
44047;DHT22;29713;-33.888;151.150;2023-03-17T11:31:57;24.80;99.90
44047;DHT22;29713;-33.888;151.150;2023-03-17T11:39:52;24.70;99.90
44047;DHT22;29713;-33.888;151.150;2023-03-17T11:51:17;24.70;99.90
44047;DHT22;29713;-33.888;151.150;2023-03-17T11:54:02;24.70;99.90
44047;DHT22;29713;-33.888;151.150;2023-03-17T11:56:48;24.60;99.90
44047;DHT22;29713;-33.888;151.150;2023-03-17T12:02:00;24.70;99.90
44047;DHT22;29713;-33.888;151.150;2023-03-17T12:04:47;24.60;99.90
44047;DHT22;29713;-33.888;151.150;2023-03-17T12:07:24;24.60;99.90
44047;DHT22;29713;-33.888;151.150;2023-03-17T12:10:21;24.60;99.90
44047;DHT22;29713;-33.888;151.150;2023-03-17T12:15:38;24.60;99.90
44047;DHT22;29713;-33.888;151.150;2023-03-17T12:18:17;24.60;99.90
44047;DHT22;29713;-33.888;151.150;2023-03-17T12:23:49;24.50;99.90
44047;DHT22;29713;-33.888;151.150;2023-03-17T12:26:27;24.60;99.90
44047;DHT22;29713;-33.888;151.150;2023-03-17T12:29:08;24.50;99.90
44047;DHT22;29713;-33.888;151.150;2023-03-17T12:31:45;24.50;99.90
44047;DHT22;29713;-33.888;151.150;2023-03-17T12:34:30;24.50;99.90
44047;DHT22;29713;-33.888;151.150;2023-03-17T12:37:00;24.50;99.90
44047;DHT22;29713;-33.888;151.150;2023-03-17T12:39:33;24.40;99.90
44047;DHT22;29713;-33.888;151.150;2023-03-17T12:55:25;24.40;99.90
44047;DHT22;29713;-33.888;151.150;2023-03-17T13:03:35;24.40;99.90
44047;DHT22;29713;-33.888;151.150;2023-03-17T13:06:06;24.40;99.90
44047;DHT22;29713;-33.888;151.150;2023-03-17T13:08:42;24.40;99.90
44047;DHT22;29713;-33.888;151.150;2023-03-17T13:13:59;24.40;99.90
44047;DHT22;29713;-33.888;151.150;2023-03-17T13:16:39;24.40;99.90
44047;DHT22;29713;-33.888;151.150;2023-03-17T13:19:19;24.40;99.90
44047;DHT22;29713;-33.888;151.150;2023-03-17T13:24:44;24.40;99.90
44047;DHT22;29713;-33.888;151.150;2023-03-17T13:41:26;24.20;99.90
44047;DHT22;29713;-33.888;151.150;2023-03-17T13:46:47;24.20;99.90
44047;DHT22;29713;-33.888;151.150;2023-03-17T13:51:53;24.10;99.90
44047;DHT22;29713;-33.888;151.150;2023-03-17T13:54:31;24.10;99.90
44047;DHT22;29713;-33.888;151.150;2023-03-17T13:57:25;24.20;99.90
44047;DHT22;29713;-33.888;151.150;2023-03-17T14:02:47;24.20;99.90
44047;DHT22;29713;-33.888;151.150;2023-03-17T14:05:24;24.10;99.90
44047;DHT22;29713;-33.888;151.150;2023-03-17T14:07:57;24.10;99.90
44047;DHT22;29713;-33.888;151.150;2023-03-17T14:10:28;24.10;99.90
44047;DHT22;29713;-33.888;151.150;2023-03-17T14:16:05;24.10;99.90
44047;DHT22;29713;-33.888;151.150;2023-03-17T14:18:50;24.00;99.90
44047;DHT22;29713;-33.888;151.150;2023-03-17T14:21:31;24.00;99.90
44047;DHT22;29713;-33.888;151.150;2023-03-17T14:24:01;23.90;99.90
44047;DHT22;29713;-33.888;151.150;2023-03-17T14:26:30;23.90;99.90
44047;DHT22;29713;-33.888;151.150;2023-03-17T14:29:02;23.90;99.90
44047;DHT22;29713;-33.888;151.150;2023-03-17T14:31:30;23.80;99.90
44047;DHT22;29713;-33.888;151.150;2023-03-17T14:33:59;23.80;99.90
44047;DHT22;29713;-33.888;151.150;2023-03-17T14:36:32;23.80;99.90
44047;DHT22;29713;-33.888;151.150;2023-03-17T14:39:00;23.80;99.90
44047;DHT22;29713;-33.888;151.150;2023-03-17T14:41:28;23.70;99.90
44047;DHT22;29713;-33.888;151.150;2023-03-17T14:43:59;23.70;99.90
44047;DHT22;29713;-33.888;151.150;2023-03-17T14:46:35;23.70;99.90
44047;DHT22;29713;-33.888;151.150;2023-03-17T14:49:18;23.70;99.90
44047;DHT22;29713;-33.888;151.150;2023-03-17T14:51:50;23.70;99.90
44047;DHT22;29713;-33.888;151.150;2023-03-17T14:54:27;23.70;99.90
44047;DHT22;29713;-33.888;151.150;2023-03-17T14:57:00;23.60;99.90
44047;DHT22;29713;-33.888;151.150;2023-03-17T14:59:32;23.60;99.90
44047;DHT22;29713;-33.888;151.150;2023-03-17T15:02:06;23.60;99.90
44047;DHT22;29713;-33.888;151.150;2023-03-17T15:04:53;23.60;99.90
44047;DHT22;29713;-33.888;151.150;2023-03-17T15:07:39;23.60;99.90
44047;DHT22;29713;-33.888;151.150;2023-03-17T15:10:18;23.60;99.90
44047;DHT22;29713;-33.888;151.150;2023-03-17T15:12:47;23.60;99.90
44047;DHT22;29713;-33.888;151.150;2023-03-17T15:15:21;23.60;99.90
44047;DHT22;29713;-33.888;151.150;2023-03-17T15:18:03;23.60;99.90
44047;DHT22;29713;-33.888;151.150;2023-03-17T15:20:34;23.50;99.90
44047;DHT22;29713;-33.888;151.150;2023-03-17T15:23:20;23.50;99.90
44047;DHT22;29713;-33.888;151.150;2023-03-17T15:25:51;23.50;99.90
44047;DHT22;29713;-33.888;151.150;2023-03-17T15:28:27;23.40;99.90
44047;DHT22;29713;-33.888;151.150;2023-03-17T15:31:04;23.40;99.90
44047;DHT22;29713;-33.888;151.150;2023-03-17T15:33:38;23.40;99.90
44047;DHT22;29713;-33.888;151.150;2023-03-17T15:36:06;23.30;99.90
44047;DHT22;29713;-33.888;151.150;2023-03-17T15:38:35;23.30;99.90
44047;DHT22;29713;-33.888;151.150;2023-03-17T15:41:04;23.30;99.90
44047;DHT22;29713;-33.888;151.150;2023-03-17T15:43:31;23.30;99.90
44047;DHT22;29713;-33.888;151.150;2023-03-17T15:46:09;23.30;99.90
44047;DHT22;29713;-33.888;151.150;2023-03-17T15:48:41;23.30;99.90
44047;DHT22;29713;-33.888;151.150;2023-03-17T15:51:10;23.30;99.90
44047;DHT22;29713;-33.888;151.150;2023-03-17T15:53:37;23.30;99.90
44047;DHT22;29713;-33.888;151.150;2023-03-17T15:56:05;23.30;99.90
44047;DHT22;29713;-33.888;151.150;2023-03-17T15:58:35;23.20;99.90
44047;DHT22;29713;-33.888;151.150;2023-03-17T16:01:03;23.20;99.90
44047;DHT22;29713;-33.888;151.150;2023-03-17T16:03:33;23.20;99.90
44047;DHT22;29713;-33.888;151.150;2023-03-17T16:06:01;23.20;99.90
44047;DHT22;29713;-33.888;151.150;2023-03-17T16:08:30;23.20;99.90
44047;DHT22;29713;-33.888;151.150;2023-03-17T16:10:57;23.10;99.90
44047;DHT22;29713;-33.888;151.150;2023-03-17T16:13:24;23.10;99.90
44047;DHT22;29713;-33.888;151.150;2023-03-17T16:15:57;23.10;99.90
44047;DHT22;29713;-33.888;151.150;2023-03-17T16:18:35;23.10;99.90
44047;DHT22;29713;-33.888;151.150;2023-03-17T16:21:04;23.00;99.90
44047;DHT22;29713;-33.888;151.150;2023-03-17T16:23:32;23.00;99.90
44047;DHT22;29713;-33.888;151.150;2023-03-17T16:26:01;23.00;99.90
44047;DHT22;29713;-33.888;151.150;2023-03-17T16:28:31;23.00;99.90
44047;DHT22;29713;-33.888;151.150;2023-03-17T16:31:00;22.90;99.90
44047;DHT22;29713;-33.888;151.150;2023-03-17T16:33:38;22.90;99.90
44047;DHT22;29713;-33.888;151.150;2023-03-17T16:36:08;22.90;99.90
44047;DHT22;29713;-33.888;151.150;2023-03-17T16:38:39;22.90;99.90
44047;DHT22;29713;-33.888;151.150;2023-03-17T16:41:19;22.80;99.90
44047;DHT22;29713;-33.888;151.150;2023-03-17T16:43:50;22.80;99.90
44047;DHT22;29713;-33.888;151.150;2023-03-17T16:46:19;22.80;99.90
44047;DHT22;29713;-33.888;151.150;2023-03-17T16:48:48;22.80;99.90
44047;DHT22;29713;-33.888;151.150;2023-03-17T16:51:17;22.80;99.90
44047;DHT22;29713;-33.888;151.150;2023-03-17T16:53:45;22.70;99.90
44047;DHT22;29713;-33.888;151.150;2023-03-17T16:56:18;22.70;99.90
44047;DHT22;29713;-33.888;151.150;2023-03-17T16:58:46;22.70;99.90
44047;DHT22;29713;-33.888;151.150;2023-03-17T17:01:20;22.70;99.90